Time;durP1;ratioP1;P1;durP2;ratioP2;P2;SDS_P1;SDS_P2;PMS_P1;PMS_P2;Temp;Humidity;BMP_temperature;BMP_pressure;BME280_temperature;BME280_humidity;BME280_pressure;Samples;Min_cycle;Max_cycle;Signal;HPM_P1;HPM_P2
2022/12/31 00:00:32;;;;;;;9.40;4.10;;;;;;;;;;5001989;28;20041;-64
2022/12/31 00:02:58;;;;;;;7.70;3.88;;;;;;;;;;5014068;28;20041;-64
2022/12/31 00:05:24;;;;;;;8.20;3.13;;;;;;;;;;5017040;28;20045;-66
2022/12/31 00:07:50;;;;;;;12.00;3.70;;;;;;;;;;5012113;28;20053;-67
2022/12/31 00:10:16;;;;;;;12.73;8.18;;;;;;;;;;5020182;28;20045;-67
2022/12/31 00:12:42;;;;;;;9.35;3.92;;;;;;;;;;5017172;28;20419;-67
2022/12/31 00:15:08;;;;;;;9.15;4.53;;;;;;;;;;5018172;28;20045;-66
2022/12/31 00:17:34;;;;;;;8.00;3.08;;;;;;;;;;5006024;28;20077;-67
2022/12/31 00:20:00;;;;;;;11.15;5.07;;;;;;;;;;5011397;28;20042;-66
2022/12/31 00:22:26;;;;;;;7.70;3.65;;;;;;;;;;5006045;28;20196;-66
2022/12/31 00:24:52;;;;;;;9.50;3.95;;;;;;;;;;5009029;28;20037;-66
2022/12/31 00:27:18;;;;;;;10.70;4.05;;;;;;;;;;5007973;28;20041;-65
2022/12/31 00:29:44;;;;;;;6.15;3.47;;;;;;;;;;5002341;28;20546;-67
2022/12/31 00:32:10;;;;;;;10.20;3.80;;;;;;;;;;4996858;28;20103;-67
2022/12/31 00:34:36;;;;;;;7.78;3.10;;;;;;;;;;5023289;28;20042;-66
2022/12/31 00:37:02;;;;;;;8.80;3.45;;;;;;;;;;5012274;28;20038;-67
2022/12/31 00:39:28;;;;;;;6.65;3.58;;;;;;;;;;5022393;28;20037;-66
2022/12/31 00:41:54;;;;;;;7.25;3.53;;;;;;;;;;5004424;28;20038;-66
2022/12/31 00:44:20;;;;;;;9.32;3.85;;;;;;;;;;5030649;28;20419;-66
2022/12/31 00:46:47;;;;;;;9.38;3.30;;;;;;;;;;5018402;28;20038;-66
2022/12/31 00:49:13;;;;;;;4.47;3.25;;;;;;;;;;5011625;28;20603;-65
2022/12/31 00:51:39;;;;;;;6.38;3.67;;;;;;;;;;5007501;28;20046;-65
2022/12/31 00:54:05;;;;;;;7.88;3.85;;;;;;;;;;5019203;28;20072;-66
2022/12/31 00:56:31;;;;;;;7.50;3.58;;;;;;;;;;5005668;28;20078;-65
2022/12/31 00:58:58;;;;;;;8.18;3.72;;;;;;;;;;5011287;28;20397;-66
2022/12/31 01:01:32;;;;;;;11.57;4.13;;;;;;;;;;5016075;28;20034;-66
2022/12/31 01:04:00;;;;;;;8.02;3.97;;;;;;;;;;5026798;28;20120;-66
2022/12/31 01:06:26;;;;;;;10.07;4.53;;;;;;;;;;5005597;28;20180;-66
2022/12/31 01:08:54;;;;;;;5.95;4.10;;;;;;;;;;5017476;28;20124;-66
2022/12/31 01:11:23;;;;;;;8.98;4.38;;;;;;;;;;5014088;28;20042;-66
2022/12/31 01:13:49;;;;;;;9.57;4.82;;;;;;;;;;5023489;28;20495;-66
2022/12/31 01:16:15;;;;;;;11.50;4.55;;;;;;;;;;5002462;28;20050;-66
2022/12/31 01:18:42;;;;;;;11.07;4.93;;;;;;;;;;5021065;28;20054;-65
2022/12/31 01:21:09;;;;;;;7.57;4.90;;;;;;;;;;5014153;28;20033;-66
2022/12/31 01:23:36;;;;;;;9.07;4.70;;;;;;;;;;5009667;28;20049;-66
2022/12/31 01:26:03;;;;;;;10.20;4.68;;;;;;;;;;5011001;28;20124;-66
2022/12/31 01:28:30;;;;;;;8.63;3.88;;;;;;;;;;5011980;28;20038;-66
2022/12/31 01:30:56;;;;;;;7.95;4.57;;;;;;;;;;5010060;28;20038;-66
2022/12/31 01:33:22;;;;;;;12.40;4.22;;;;;;;;;;5013307;28;20049;-66
2022/12/31 01:35:48;;;;;;;9.00;4.53;;;;;;;;;;5013915;28;20550;-66
2022/12/31 01:38:15;;;;;;;7.13;4.38;;;;;;;;;;5012902;28;20048;-66
2022/12/31 01:40:41;;;;;;;5.03;3.70;;;;;;;;;;4994605;28;20443;-66
2022/12/31 01:43:17;;;;;;;7.30;4.40;;;;;;;;;;5008563;28;20061;-66
2022/12/31 01:45:44;;;;;;;6.38;3.97;;;;;;;;;;5036696;22;20103;-68
2022/12/31 01:48:13;;;;;;;5.88;3.38;;;;;;;;;;5030633;28;20040;-68
2022/12/31 01:50:40;;;;;;;9.32;4.45;;;;;;;;;;5032470;28;20518;-69
2022/12/31 01:53:08;;;;;;;7.18;3.97;;;;;;;;;;5030902;28;20044;-69
2022/12/31 01:55:39;;;;;;;7.45;3.45;;;;;;;;;;5032475;28;20109;-68
2022/12/31 01:58:07;;;;;;;7.97;3.63;;;;;;;;;;5029945;28;20053;-68
2022/12/31 02:00:33;;;;;;;6.93;3.40;;;;;;;;;;5033916;28;20065;-69
2022/12/31 02:02:59;;;;;;;5.47;3.10;;;;;;;;;;5029429;28;20073;-69
2022/12/31 02:05:29;;;;;;;5.43;2.22;;;;;;;;;;5030501;28;20038;-68
2022/12/31 02:07:55;;;;;;;6.20;2.75;;;;;;;;;;5009629;28;20045;-69
2022/12/31 02:10:21;;;;;;;3.88;2.50;;;;;;;;;;5021893;28;20121;-69
2022/12/31 02:12:48;;;;;;;3.85;1.80;;;;;;;;;;5021535;28;20121;-69
2022/12/31 02:15:14;;;;;;;4.75;2.33;;;;;;;;;;5019874;28;20045;-69
2022/12/31 02:17:45;;;;;;;4.32;2.03;;;;;;;;;;5019166;28;20053;-69
2022/12/31 02:20:11;;;;;;;;;;;;;;;;;;5024858;28;20060;-68
2022/12/31 02:22:46;;;;;;;2.92;1.60;;;;;;;;;;5024950;28;19948;-68
2022/12/31 02:25:15;;;;;;;3.15;1.70;;;;;;;;;;5030289;28;20025;-69
2022/12/31 02:27:59;;;;;;;3.42;1.20;;;;;;;;;;5033114;28;20455;-69
2022/12/31 02:30:29;;;;;;;3.83;0.82;;;;;;;;;;5033045;28;20088;-69
2022/12/31 02:32:55;;;;;;;0.90;0.65;;;;;;;;;;5029140;28;20125;-69
2022/12/31 02:35:21;;;;;;;1.85;0.80;;;;;;;;;;5030987;28;20125;-69
2022/12/31 02:37:49;;;;;;;1.38;0.85;;;;;;;;;;5022948;28;20152;-69
2022/12/31 02:40:18;;;;;;;2.38;0.70;;;;;;;;;;5026243;28;20037;-69
2022/12/31 02:42:44;;;;;;;1.05;0.77;;;;;;;;;;5029524;28;20137;-70
2022/12/31 02:45:13;;;;;;;4.22;1.10;;;;;;;;;;5031617;28;20061;-69
2022/12/31 02:47:53;;;;;;;4.07;1.17;;;;;;;;;;5029981;28;20041;-69
2022/12/31 02:50:30;;;;;;;1.48;0.80;;;;;;;;;;5025984;28;20038;-70
2022/12/31 02:52:59;;;;;;;2.55;0.93;;;;;;;;;;5026950;28;20049;-70
2022/12/31 02:55:48;;;;;;;2.60;0.80;;;;;;;;;;5031700;28;20407;-69
2022/12/31 02:58:17;;;;;;;2.08;1.00;;;;;;;;;;5023550;28;20041;-70
2022/12/31 03:03:36;;;;;;;4.85;1.20;;;;;;;;;;5025378;28;20510;-69
2022/12/31 03:06:03;;;;;;;3.63;1.20;;;;;;;;;;5030066;28;20037;-69
2022/12/31 03:08:29;;;;;;;2.83;1.20;;;;;;;;;;5031399;28;20159;-70
2022/12/31 03:10:55;;;;;;;3.28;1.27;;;;;;;;;;5023143;28;20044;-69
2022/12/31 03:13:22;;;;;;;2.92;1.50;;;;;;;;;;5030347;28;20397;-70
2022/12/31 03:15:49;;;;;;;3.38;1.50;;;;;;;;;;5008871;28;20120;-69
2022/12/31 03:18:16;;;;;;;4.10;1.42;;;;;;;;;;5021717;28;20530;-69
2022/12/31 03:23:37;;;;;;;4.75;2.05;;;;;;;;;;5025652;28;20044;-68
2022/12/31 03:26:10;;;;;;;5.35;2.25;;;;;;;;;;5025979;28;20034;-69
2022/12/31 03:28:37;;;;;;;3.60;2.08;;;;;;;;;;5031762;28;20128;-69
2022/12/31 03:31:04;;;;;;;3.25;1.85;;;;;;;;;;5027494;28;20034;-68
2022/12/31 03:33:31;;;;;;;2.67;1.90;;;;;;;;;;5027267;28;20037;-67
2022/12/31 03:35:57;;;;;;;7.18;2.10;;;;;;;;;;5030891;28;20045;-67
2022/12/31 03:38:23;;;;;;;5.82;1.98;;;;;;;;;;5031993;28;20047;-67
2022/12/31 03:40:50;;;;;;;2.88;2.20;;;;;;;;;;5029416;28;20056;-67
2022/12/31 03:43:18;;;;;;;3.97;2.50;;;;;;;;;;5030207;28;20044;-68
2022/12/31 03:45:44;;;;;;;6.32;2.47;;;;;;;;;;5029368;28;20046;-68
2022/12/31 03:48:10;;;;;;;5.95;2.35;;;;;;;;;;5029694;28;20038;-68
2022/12/31 03:50:36;;;;;;;3.63;2.42;;;;;;;;;;5030553;28;20045;-68
2022/12/31 03:53:02;;;;;;;4.18;2.47;;;;;;;;;;5023413;28;20446;-68
2022/12/31 03:55:28;;;;;;;5.03;2.40;;;;;;;;;;5030816;28;20037;-68
2022/12/31 03:57:54;;;;;;;3.42;2.28;;;;;;;;;;5030652;28;20514;-68
2022/12/31 04:00:21;;;;;;;3.40;2.20;;;;;;;;;;5030570;28;20040;-68
2022/12/31 04:02:48;;;;;;;6.18;2.30;;;;;;;;;;5022002;28;20041;-68
2022/12/31 04:05:14;;;;;;;4.15;2.58;;;;;;;;;;5030391;28;20029;-68
2022/12/31 04:07:40;;;;;;;4.97;2.30;;;;;;;;;;5030366;28;20483;-68
2022/12/31 04:10:07;;;;;;;3.15;2.20;;;;;;;;;;5021717;28;20033;-69
2022/12/31 04:12:33;;;;;;;3.50;2.17;;;;;;;;;;5030310;28;20445;-69
2022/12/31 04:14:59;;;;;;;6.88;2.58;;;;;;;;;;5029869;28;20052;-69
2022/12/31 04:17:26;;;;;;;3.92;2.53;;;;;;;;;;5028854;28;20045;-69
2022/12/31 04:19:52;;;;;;;5.80;2.33;;;;;;;;;;5031492;28;20129;-69
2022/12/31 04:22:18;;;;;;;4.18;2.50;;;;;;;;;;5029368;28;20052;-69
2022/12/31 04:24:44;;;;;;;4.80;2.30;;;;;;;;;;5029874;28;20124;-70
2022/12/31 04:27:13;;;;;;;3.63;1.88;;;;;;;;;;5030677;28;20037;-69
2022/12/31 04:29:40;;;;;;;4.75;2.08;;;;;;;;;;5029710;28;20048;-68
2022/12/31 04:32:06;;;;;;;1.95;1.52;;;;;;;;;;5028459;28;20159;-69
2022/12/31 04:34:32;;;;;;;3.95;1.85;;;;;;;;;;5030035;28;20450;-69
2022/12/31 04:36:58;;;;;;;4.15;1.90;;;;;;;;;;5030517;28;20403;-69
2022/12/31 04:39:25;;;;;;;2.83;1.52;;;;;;;;;;5020496;28;20044;-69
2022/12/31 04:41:51;;;;;;;4.10;1.60;;;;;;;;;;5029216;28;20038;-70
2022/12/31 04:44:17;;;;;;;3.92;1.60;;;;;;;;;;5029956;28;20491;-69
2022/12/31 04:46:43;;;;;;;3.58;1.67;;;;;;;;;;5028659;28;20082;-69
2022/12/31 04:49:10;;;;;;;8.88;1.70;;;;;;;;;;5027768;28;20125;-69
2022/12/31 04:51:36;;;;;;;3.92;1.38;;;;;;;;;;5028519;28;20048;-69
2022/12/31 04:54:02;;;;;;;4.22;1.55;;;;;;;;;;5032730;28;20045;-69
2022/12/31 04:56:28;;;;;;;4.65;1.40;;;;;;;;;;5031285;28;20083;-69
2022/12/31 04:58:54;;;;;;;5.07;1.50;;;;;;;;;;5033182;28;20041;-69
2022/12/31 05:01:20;;;;;;;4.03;1.33;;;;;;;;;;5032493;28;20038;-69
2022/12/31 05:03:47;;;;;;;4.30;1.50;;;;;;;;;;5030666;28;20387;-69
2022/12/31 05:06:15;;;;;;;3.20;1.67;;;;;;;;;;5034157;28;20419;-69
2022/12/31 05:08:41;;;;;;;2.75;1.20;;;;;;;;;;5035096;28;20038;-69
2022/12/31 05:11:07;;;;;;;6.32;1.38;;;;;;;;;;5006326;28;20124;-69
2022/12/31 05:13:33;;;;;;;3.67;1.60;;;;;;;;;;5030286;28;20041;-68
2022/12/31 05:15:59;;;;;;;3.25;1.35;;;;;;;;;;5031197;28;20037;-69
2022/12/31 05:18:25;;;;;;;4.68;1.50;;;;;;;;;;5033647;28;20504;-68
2022/12/31 05:20:51;;;;;;;5.10;1.80;;;;;;;;;;5032954;28;20045;-69
2022/12/31 05:23:17;;;;;;;4.10;1.73;;;;;;;;;;5033049;28;20037;-69
2022/12/31 05:25:45;;;;;;;8.57;2.30;;;;;;;;;;5033313;28;20116;-69
2022/12/31 05:28:11;;;;;;;6.13;2.30;;;;;;;;;;5034164;28;20497;-69
2022/12/31 05:30:37;;;;;;;7.45;2.60;;;;;;;;;;5030280;28;20125;-69
2022/12/31 05:33:03;;;;;;;5.65;3.03;;;;;;;;;;5032059;28;20037;-69
2022/12/31 05:35:29;;;;;;;5.15;3.65;;;;;;;;;;5033222;28;20124;-69
2022/12/31 05:37:55;;;;;;;6.57;4.28;;;;;;;;;;5031545;28;20045;-69
2022/12/31 05:40:21;;;;;;;6.68;4.45;;;;;;;;;;5031889;28;20120;-69
2022/12/31 05:42:48;;;;;;;8.38;4.38;;;;;;;;;;5024061;28;20068;-69
2022/12/31 05:45:17;;;;;;;8.38;5.35;;;;;;;;;;5026068;28;20140;-70
2022/12/31 05:47:43;;;;;;;10.95;4.60;;;;;;;;;;5030288;28;20130;-69
2022/12/31 05:50:10;;;;;;;7.75;4.88;;;;;;;;;;5027431;28;20042;-69
2022/12/31 05:52:36;;;;;;;10.15;4.75;;;;;;;;;;5031366;28;20103;-68
2022/12/31 05:55:03;;;;;;;5.28;3.88;;;;;;;;;;5021750;28;20052;-67
2022/12/31 05:57:29;;;;;;;7.53;4.82;;;;;;;;;;5023825;28;20077;-67
2022/12/31 05:59:55;;;;;;;6.32;4.03;;;;;;;;;;5030290;28;20317;-68
2022/12/31 06:02:21;;;;;;;7.95;4.28;;;;;;;;;;5029702;28;20041;-68
2022/12/31 06:04:47;;;;;;;4.47;3.65;;;;;;;;;;5026391;28;20034;-68
2022/12/31 06:07:13;;;;;;;6.32;3.60;;;;;;;;;;5025193;28;20046;-68
2022/12/31 06:09:38;;;;;;;7.68;4.15;;;;;;;;;;5024137;28;20109;-67
2022/12/31 06:12:05;;;;;;;6.30;3.28;;;;;;;;;;5008673;28;20097;-68
2022/12/31 06:14:31;;;;;;;5.22;3.20;;;;;;;;;;5027528;28;20034;-69
2022/12/31 06:16:57;;;;;;;5.47;3.50;;;;;;;;;;5014497;28;20048;-69
2022/12/31 06:19:23;;;;;;;3.92;2.90;;;;;;;;;;5032913;28;20053;-69
2022/12/31 06:21:49;;;;;;;4.38;2.85;;;;;;;;;;5032109;28;20045;-69
2022/12/31 06:24:15;;;;;;;5.35;3.20;;;;;;;;;;5030594;28;20091;-70
2022/12/31 06:26:41;;;;;;;3.20;2.30;;;;;;;;;;5023974;28;20041;-69
2022/12/31 06:29:07;;;;;;;6.20;2.90;;;;;;;;;;5018817;28;20045;-70
2022/12/31 06:31:33;;;;;;;4.10;2.42;;;;;;;;;;5007948;28;20048;-69
2022/12/31 06:33:59;;;;;;;7.00;3.38;;;;;;;;;;5032756;28;20033;-69
2022/12/31 06:36:26;;;;;;;5.75;2.70;;;;;;;;;;5031614;28;20518;-69
2022/12/31 06:38:52;;;;;;;4.80;3.65;;;;;;;;;;5030540;28;20084;-69
2022/12/31 06:41:18;;;;;;;5.53;3.28;;;;;;;;;;5015204;28;20056;-69
2022/12/31 06:43:45;;;;;;;5.28;3.15;;;;;;;;;;5031916;28;20086;-69
2022/12/31 06:46:15;;;;;;;6.13;3.10;;;;;;;;;;5031110;28;20044;-69
2022/12/31 06:48:43;;;;;;;3.60;2.67;;;;;;;;;;5032924;28;20068;-68
2022/12/31 06:51:10;;;;;;;6.07;2.78;;;;;;;;;;5014536;28;20057;-68
2022/12/31 06:53:36;;;;;;;3.90;2.55;;;;;;;;;;5028775;28;20502;-68
2022/12/31 06:56:09;;;;;;;4.95;2.60;;;;;;;;;;5026533;28;20052;-68
2022/12/31 06:58:36;;;;;;;6.15;3.17;;;;;;;;;;5032766;28;20088;-69
2022/12/31 07:01:08;;;;;;;4.05;2.75;;;;;;;;;;5032000;28;20040;-69
2022/12/31 07:03:34;;;;;;;4.88;2.83;;;;;;;;;;5030869;28;20056;-69
2022/12/31 07:06:14;;;;;;;5.78;3.67;;;;;;;;;;5030442;28;20494;-69
2022/12/31 07:08:43;;;;;;;3.65;3.00;;;;;;;;;;5030013;28;20077;-69
2022/12/31 07:11:20;;;;;;;3.10;2.63;;;;;;;;;;5028310;28;20600;-68
2022/12/31 07:13:49;;;;;;;4.78;3.05;;;;;;;;;;5026098;28;20037;-69
2022/12/31 07:16:35;;;;;;;4.88;2.78;;;;;;;;;;5028798;28;20041;-69
2022/12/31 07:19:10;;;;;;;4.85;2.92;;;;;;;;;;5015662;28;20046;-69
2022/12/31 07:21:38;;;;;;;5.57;3.00;;;;;;;;;;5028792;28;20061;-69
2022/12/31 07:24:07;;;;;;;6.60;3.13;;;;;;;;;;5026949;28;20057;-69
2022/12/31 07:26:36;;;;;;;4.88;2.65;;;;;;;;;;5031280;28;20037;-70
2022/12/31 07:29:16;;;;;;;3.47;2.20;;;;;;;;;;5032041;28;20045;-70
2022/12/31 07:31:45;;;;;;;4.13;2.00;;;;;;;;;;5025519;28;20037;-70
2022/12/31 07:34:23;;;;;;;4.07;2.22;;;;;;;;;;5027368;28;20522;-70
2022/12/31 07:36:49;;;;;;;3.15;2.00;;;;;;;;;;5028750;28;20038;-70
2022/12/31 07:39:23;;;;;;;4.25;1.90;;;;;;;;;;5006154;28;20051;-70
2022/12/31 07:41:56;;;;;;;4.63;2.38;;;;;;;;;;5027620;28;20034;-69
2022/12/31 07:47:03;;;;;;;;;;;;;;;;;;5044424;28;20049;-64
2022/12/31 07:49:30;;;;;;;3.15;2.15;;;;;;;;;;5042528;28;20012;-64
2022/12/31 07:51:56;;;;;;;4.45;2.45;;;;;;;;;;5041074;28;20030;-64
2022/12/31 07:54:22;;;;;;;3.30;2.40;;;;;;;;;;5035669;28;20120;-64
2022/12/31 07:56:49;;;;;;;3.72;2.90;;;;;;;;;;5018289;28;20183;-64
2022/12/31 07:59:15;;;;;;;4.43;2.95;;;;;;;;;;5017994;28;20046;-64
2022/12/31 08:02:00;;;;;;;5.53;3.35;;;;;;;;;;5019004;28;20035;-64
2022/12/31 08:04:28;;;;;;;4.28;2.72;;;;;;;;;;5023635;28;20048;-64
2022/12/31 08:07:01;;;;;;;5.15;3.05;;;;;;;;;;5019091;28;20131;-64
2022/12/31 08:09:46;;;;;;;4.25;2.70;;;;;;;;;;5028083;28;20120;-64
2022/12/31 08:12:14;;;;;;;4.32;3.03;;;;;;;;;;5023734;28;20041;-64
2022/12/31 08:14:44;;;;;;;4.22;2.97;;;;;;;;;;5029662;28;20136;-64
2022/12/31 08:17:14;;;;;;;5.65;2.85;;;;;;;;;;5020289;28;20056;-64
2022/12/31 08:19:40;;;;;;;3.22;2.35;;;;;;;;;;5024426;28;20045;-64
2022/12/31 08:22:14;;;;;;;6.53;2.53;;;;;;;;;;5024607;28;20396;-64
2022/12/31 08:24:51;;;;;;;4.03;2.70;;;;;;;;;;5017335;28;20099;-64
2022/12/31 08:27:34;;;;;;;4.63;2.95;;;;;;;;;;5022805;28;20041;-64
2022/12/31 08:30:00;;;;;;;4.30;2.83;;;;;;;;;;5024118;28;20037;-64
2022/12/31 08:32:33;;;;;;;4.80;2.97;;;;;;;;;;5022087;28;20041;-64
2022/12/31 08:35:18;;;;;;;6.28;3.38;;;;;;;;;;5021775;28;20124;-64
2022/12/31 08:38:13;;;;;;;3.92;2.70;;;;;;;;;;5029461;28;20087;-64
2022/12/31 08:40:45;;;;;;;4.43;3.20;;;;;;;;;;4979211;28;20046;-65
2022/12/31 08:43:18;;;;;;;5.10;3.17;;;;;;;;;;5021839;28;20034;-64
2022/12/31 08:45:48;;;;;;;6.47;3.17;;;;;;;;;;5023870;28;20065;-64
2022/12/31 08:48:14;;;;;;;4.60;3.30;;;;;;;;;;5027785;28;20045;-64
2022/12/31 08:50:40;;;;;;;3.38;2.38;;;;;;;;;;5032184;28;20049;-64
2022/12/31 08:53:06;;;;;;;5.78;3.35;;;;;;;;;;5025188;28;20042;-64
2022/12/31 08:55:33;;;;;;;4.43;3.30;;;;;;;;;;5024578;28;20453;-64
2022/12/31 08:58:15;;;;;;;4.07;3.10;;;;;;;;;;5022177;28;20053;-64
2022/12/31 09:00:41;;;;;;;5.72;3.22;;;;;;;;;;5029597;28;20037;-64
2022/12/31 09:03:10;;;;;;;3.25;2.80;;;;;;;;;;5021877;28;20054;-64
2022/12/31 09:05:39;;;;;;;3.80;2.92;;;;;;;;;;5028546;28;20486;-64
2022/12/31 09:08:11;;;;;;;3.83;2.58;;;;;;;;;;5024802;28;20042;-64
2022/12/31 09:10:40;;;;;;;3.72;2.42;;;;;;;;;;5024324;28;20132;-64
2022/12/31 09:13:31;;;;;;;2.95;2.45;;;;;;;;;;5030479;28;20136;-64
2022/12/31 09:15:59;;;;;;;2.40;1.98;;;;;;;;;;5025471;28;20045;-64
2022/12/31 09:18:25;;;;;;;2.30;2.10;;;;;;;;;;5019966;28;20500;-64
2022/12/31 09:20:51;;;;;;;2.85;1.50;;;;;;;;;;5026812;28;20076;-64
2022/12/31 09:23:18;;;;;;;3.33;1.55;;;;;;;;;;5023126;28;20048;-64
2022/12/31 09:25:49;;;;;;;2.17;1.50;;;;;;;;;;5028116;28;20535;-64
2022/12/31 09:28:18;;;;;;;2.40;1.20;;;;;;;;;;5022917;28;20096;-64
2022/12/31 09:30:50;;;;;;;1.83;1.40;;;;;;;;;;5021031;28;20456;-64
2022/12/31 09:33:19;;;;;;;2.92;1.05;;;;;;;;;;5026419;28;20044;-63
2022/12/31 09:35:53;;;;;;;1.75;0.90;;;;;;;;;;5026809;28;20037;-64
2022/12/31 09:38:22;;;;;;;3.33;1.55;;;;;;;;;;5023132;28;20513;-65
2022/12/31 09:40:54;;;;;;;3.88;1.23;;;;;;;;;;5020268;28;20053;-64
2022/12/31 09:43:43;;;;;;;1.40;0.90;;;;;;;;;;5021044;28;20033;-63
2022/12/31 09:46:21;;;;;;;0.88;0.63;;;;;;;;;;5024409;28;20037;-63
2022/12/31 09:49:03;;;;;;;1.55;0.80;;;;;;;;;;5021996;28;20532;-63
2022/12/31 09:51:47;;;;;;;2.38;0.60;;;;;;;;;;5019279;28;20041;-63
2022/12/31 09:54:23;;;;;;;0.70;0.57;;;;;;;;;;5021547;28;20102;-63
2022/12/31 09:57:08;;;;;;;1.77;0.90;;;;;;;;;;5021023;28;20041;-64
2022/12/31 09:59:52;;;;;;;1.17;0.68;;;;;;;;;;5021638;28;20053;-64
2022/12/31 10:02:24;;;;;;;2.70;0.70;;;;;;;;;;5022223;28;20049;-63
2022/12/31 10:04:53;;;;;;;2.90;0.90;;;;;;;;;;5020873;28;21679;-64
2022/12/31 10:07:33;;;;;;;1.83;0.80;;;;;;;;;;5022941;28;20053;-64
2022/12/31 10:10:02;;;;;;;2.35;0.90;;;;;;;;;;5025169;28;20051;-64
2022/12/31 10:12:41;;;;;;;0.45;0.45;;;;;;;;;;5029881;28;20304;-64
2022/12/31 10:15:07;;;;;;;2.15;0.73;;;;;;;;;;5023614;28;20049;-64
2022/12/31 10:17:48;;;;;;;1.30;0.85;;;;;;;;;;5025087;28;20067;-64
2022/12/31 10:20:33;;;;;;;2.40;0.95;;;;;;;;;;5027348;28;20041;-64
2022/12/31 10:23:08;;;;;;;1.92;0.90;;;;;;;;;;5021641;28;20049;-64
2022/12/31 10:25:56;;;;;;;1.05;0.82;;;;;;;;;;5021808;28;20037;-64
2022/12/31 10:28:21;;;;;;;2.45;1.42;;;;;;;;;;5027717;28;20072;-64
2022/12/31 10:30:52;;;;;;;1.42;1.25;;;;;;;;;;5023383;28;20136;-64
2022/12/31 10:33:37;;;;;;;2.77;1.47;;;;;;;;;;5028825;28;20128;-64
2022/12/31 10:36:29;;;;;;;1.83;1.08;;;;;;;;;;5023336;28;20500;-64
2022/12/31 10:39:02;;;;;;;1.40;1.23;;;;;;;;;;5020666;28;20053;-64
2022/12/31 10:41:27;;;;;;;1.92;1.40;;;;;;;;;;5026380;28;20037;-64
2022/12/31 10:44:12;;;;;;;2.08;1.10;;;;;;;;;;5021863;28;20506;-64
2022/12/31 10:46:41;;;;;;;2.17;1.20;;;;;;;;;;5026586;28;20041;-64
2022/12/31 10:49:19;;;;;;;2.53;1.40;;;;;;;;;;5019741;28;20065;-64
2022/12/31 10:52:04;;;;;;;2.80;1.35;;;;;;;;;;5022534;28;20045;-64
2022/12/31 10:54:36;;;;;;;3.00;1.38;;;;;;;;;;5014264;28;20089;-64
2022/12/31 10:57:17;;;;;;;1.27;0.90;;;;;;;;;;5021354;28;20037;-64
2022/12/31 10:59:58;;;;;;;4.22;1.60;;;;;;;;;;5031113;28;20042;-64
2022/12/31 11:02:24;;;;;;;;;;;;;;;;;;5024653;28;20038;-63
2022/12/31 11:05:10;;;;;;;2.97;1.30;;;;;;;;;;5021810;28;19921;-63
2022/12/31 11:07:48;;;;;;;1.88;1.50;;;;;;;;;;4997560;28;20045;-63
2022/12/31 11:10:17;;;;;;;2.60;1.30;;;;;;;;;;5025139;28;20038;-63
2022/12/31 11:13:02;;;;;;;2.20;1.10;;;;;;;;;;5012760;28;20042;-63
2022/12/31 11:15:47;;;;;;;2.15;1.38;;;;;;;;;;5022595;28;20040;-63
2022/12/31 11:18:28;;;;;;;2.28;1.10;;;;;;;;;;5021675;28;20128;-64
2022/12/31 11:21:12;;;;;;;4.47;1.50;;;;;;;;;;5020609;28;20133;-64
2022/12/31 11:23:51;;;;;;;2.25;1.00;;;;;;;;;;5021443;28;20029;-63
2022/12/31 11:26:33;;;;;;;2.80;1.38;;;;;;;;;;5018709;28;20056;-63
2022/12/31 11:29:04;;;;;;;2.15;1.10;;;;;;;;;;5022909;28;20128;-63
2022/12/31 11:31:49;;;;;;;3.85;1.33;;;;;;;;;;5025520;28;20045;-63
2022/12/31 11:34:38;;;;;;;3.10;1.45;;;;;;;;;;5019867;28;20045;-63
2022/12/31 11:37:10;;;;;;;4.55;2.08;;;;;;;;;;5016958;28;20519;-63
2022/12/31 11:39:39;;;;;;;4.68;1.65;;;;;;;;;;5028126;28;20411;-63
2022/12/31 11:42:18;;;;;;;3.47;1.92;;;;;;;;;;5020582;28;20125;-63
2022/12/31 11:44:49;;;;;;;4.25;1.73;;;;;;;;;;5028137;28;20036;-64
2022/12/31 11:47:15;;;;;;;3.55;1.92;;;;;;;;;;5027628;28;20048;-63
2022/12/31 11:49:59;;;;;;;4.65;2.20;;;;;;;;;;5024806;28;20041;-63
2022/12/31 11:52:44;;;;;;;4.13;2.20;;;;;;;;;;5018674;28;20128;-63
2022/12/31 11:55:27;;;;;;;4.18;2.35;;;;;;;;;;5018041;28;20030;-63
2022/12/31 11:57:53;;;;;;;4.93;2.45;;;;;;;;;;5021962;28;20037;-63
2022/12/31 12:00:20;;;;;;;5.25;2.50;;;;;;;;;;5024063;28;20037;-63
2022/12/31 12:02:48;;;;;;;5.00;2.60;;;;;;;;;;5018210;28;20041;-63
2022/12/31 12:05:19;;;;;;;3.85;2.50;;;;;;;;;;5022746;28;20099;-64
2022/12/31 12:07:46;;;;;;;4.40;2.20;;;;;;;;;;5026262;28;20060;-64
2022/12/31 12:10:32;;;;;;;4.68;2.17;;;;;;;;;;5018847;28;20065;-64
2022/12/31 12:12:58;;;;;;;6.50;2.92;;;;;;;;;;5014054;28;20116;-64
2022/12/31 12:15:29;;;;;;;5.38;2.67;;;;;;;;;;5022541;28;20120;-64
2022/12/31 12:18:03;;;;;;;5.03;2.30;;;;;;;;;;5021378;28;20045;-65
2022/12/31 12:20:31;;;;;;;14.77;8.30;;;;;;;;;;5022575;28;20045;-64
2022/12/31 12:22:57;;;;;;;6.30;3.08;;;;;;;;;;5021194;28;20117;-64
2022/12/31 12:25:25;;;;;;;9.80;3.72;;;;;;;;;;5010937;28;20041;-64
2022/12/31 12:27:51;;;;;;;8.23;3.38;;;;;;;;;;5016879;28;20045;-64
2022/12/31 12:30:18;;;;;;;4.93;2.45;;;;;;;;;;5020104;28;20054;-65
2022/12/31 12:32:51;;;;;;;3.20;1.60;;;;;;;;;;5025496;28;20065;-64
2022/12/31 12:35:23;;;;;;;4.45;2.10;;;;;;;;;;5025455;28;20053;-64
2022/12/31 12:37:58;;;;;;;2.40;1.52;;;;;;;;;;5011198;28;20042;-64
2022/12/31 12:40:24;;;;;;;2.30;1.70;;;;;;;;;;5012191;28;20530;-64
2022/12/31 12:42:51;;;;;;;3.67;1.90;;;;;;;;;;5020788;28;20072;-65
2022/12/31 12:45:18;;;;;;;2.72;1.98;;;;;;;;;;5019928;28;20038;-65
2022/12/31 12:47:46;;;;;;;3.28;1.50;;;;;;;;;;5013843;28;20042;-64
2022/12/31 12:50:16;;;;;;;4.90;2.03;;;;;;;;;;5011198;28;20038;-64
2022/12/31 12:52:45;;;;;;;2.67;2.00;;;;;;;;;;5011193;28;20041;-64
2022/12/31 12:55:16;;;;;;;3.95;2.00;;;;;;;;;;5015073;28;20522;-63
2022/12/31 12:57:48;;;;;;;4.45;2.40;;;;;;;;;;5017178;28;20115;-64
2022/12/31 13:00:32;;;;;;;3.78;1.90;;;;;;;;;;5023995;28;20048;-65
2022/12/31 13:02:58;;;;;;;4.22;1.63;;;;;;;;;;5030045;28;20415;-64
2022/12/31 13:05:31;;;;;;;3.72;2.13;;;;;;;;;;5031074;28;20037;-65
2022/12/31 13:08:21;;;;;;;3.42;2.13;;;;;;;;;;5029822;28;20432;-64
2022/12/31 13:10:50;;;;;;;4.28;2.05;;;;;;;;;;5021085;28;20033;-64
2022/12/31 13:13:28;;;;;;;3.75;1.98;;;;;;;;;;5027883;28;20041;-64
2022/12/31 13:16:02;;;;;;;5.25;2.00;;;;;;;;;;5025774;28;20490;-64
2022/12/31 13:18:55;;;;;;;3.00;1.77;;;;;;;;;;5034623;28;20506;-64
2022/12/31 13:21:34;;;;;;;3.40;2.15;;;;;;;;;;5026138;28;20081;-64
2022/12/31 13:24:09;;;;;;;5.35;2.95;;;;;;;;;;5022368;28;20053;-64
2022/12/31 13:26:41;;;;;;;3.97;2.63;;;;;;;;;;5012929;28;20046;-64
2022/12/31 13:29:12;;;;;;;5.25;2.70;;;;;;;;;;5025124;28;20041;-64
2022/12/31 13:31:38;;;;;;;4.32;2.65;;;;;;;;;;5017667;28;20064;-63
2022/12/31 13:34:13;;;;;;;4.90;2.28;;;;;;;;;;5014121;28;20048;-64
2022/12/31 13:36:41;;;;;;;2.90;2.58;;;;;;;;;;5022568;28;20054;-64
2022/12/31 13:39:12;;;;;;;6.18;2.60;;;;;;;;;;5033152;28;20131;-63
2022/12/31 13:41:54;;;;;;;4.20;2.60;;;;;;;;;;5032962;28;20610;-63
2022/12/31 13:44:25;;;;;;;5.05;2.70;;;;;;;;;;5022316;28;20120;-63
2022/12/31 13:46:51;;;;;;;;;;;;;;;;;;5066748;23;20064;-67
2022/12/31 13:49:37;;;;;;;6.65;4.45;;;;;;;;;;5071424;28;19916;-67
2022/12/31 13:52:15;;;;;;;7.70;4.65;;;;;;;;;;5061780;28;20494;-68
2022/12/31 13:54:50;;;;;;;12.18;4.68;;;;;;;;;;5060977;28;20045;-68
2022/12/31 13:57:42;;;;;;;9.82;4.00;;;;;;;;;;5055124;28;20123;-68
2022/12/31 14:00:28;;;;;;;5.82;3.47;;;;;;;;;;5032723;28;20045;-68
2022/12/31 14:03:00;;;;;;;6.25;3.40;;;;;;;;;;5037612;28;20171;-68
2022/12/31 14:05:35;;;;;;;8.57;3.10;;;;;;;;;;5061373;28;20044;-68
2022/12/31 14:08:02;;;;;;;9.05;3.00;;;;;;;;;;5064704;28;20040;-68
2022/12/31 14:10:28;;;;;;;7.75;2.72;;;;;;;;;;5058562;28;20090;-68
2022/12/31 14:13:13;;;;;;;4.53;2.58;;;;;;;;;;5063104;28;20045;-69
2022/12/31 14:15:45;;;;;;;3.60;2.67;;;;;;;;;;5073609;28;20045;-69
2022/12/31 14:18:18;;;;;;;6.07;3.00;;;;;;;;;;5073017;28;20075;-69
2022/12/31 14:20:48;;;;;;;11.77;3.05;;;;;;;;;;5061071;28;20174;-67
2022/12/31 14:23:17;;;;;;;6.97;3.15;;;;;;;;;;5066110;28;20036;-69
2022/12/31 14:25:53;;;;;;;5.15;3.05;;;;;;;;;;5067243;28;20040;-69
2022/12/31 14:28:23;;;;;;;6.13;3.28;;;;;;;;;;5067509;28;20508;-69
2022/12/31 14:30:51;;;;;;;9.10;4.07;;;;;;;;;;5073253;28;20036;-69
2022/12/31 14:33:28;;;;;;;7.25;3.55;;;;;;;;;;5063337;28;20125;-70
2022/12/31 14:36:04;;;;;;;7.13;3.70;;;;;;;;;;5068626;28;20040;-69
2022/12/31 14:38:36;;;;;;;7.07;3.47;;;;;;;;;;5051256;28;20079;-69
2022/12/31 14:41:18;;;;;;;5.07;3.35;;;;;;;;;;5064779;28;20036;-69
2022/12/31 14:43:50;;;;;;;7.20;3.40;;;;;;;;;;5072902;28;20074;-69
2022/12/31 14:46:35;;;;;;;6.85;3.60;;;;;;;;;;5072820;28;20036;-69
2022/12/31 14:49:15;;;;;;;4.57;3.00;;;;;;;;;;5036446;28;20036;-69
2022/12/31 14:51:41;;;;;;;8.20;3.45;;;;;;;;;;5061724;28;20117;-69
2022/12/31 14:54:26;;;;;;;5.80;3.70;;;;;;;;;;5072338;28;20044;-69
2022/12/31 14:56:52;;;;;;;3.97;2.15;;;;;;;;;;5051598;28;20071;-68
2022/12/31 14:59:22;;;;;;;7.43;3.05;;;;;;;;;;5052185;28;20044;-68
2022/12/31 15:01:49;;;;;;;5.30;2.88;;;;;;;;;;5051468;28;20033;-68
2022/12/31 15:04:15;;;;;;;4.85;2.33;;;;;;;;;;5064019;28;20040;-69
2022/12/31 15:06:48;;;;;;;9.68;3.70;;;;;;;;;;5072621;28;20048;-68
2022/12/31 15:09:17;;;;;;;4.60;2.67;;;;;;;;;;5071842;28;20086;-68
2022/12/31 15:11:46;;;;;;;8.10;3.35;;;;;;;;;;5060316;28;20037;-69